Select another period ( hide this area )

Units Period Custom range Directly to
Metric English Both
Daily Weekly Monthly Yearly
use both date-selectors for a custom range
previous Day
With this date

WeatherUnderground graphs for this period ( click here ) Loading the graph can take up to a minute!


Daily Summary for Thursday Dec 13 2018
Time Temp. ( °C ) Dew pt. ( °C ) Wind ( km/h ) From Gust ( km/h ) Pressure ( hPa ) Humid.( % ) Rainrate ( cm )
High1,1 0,0 1,4 SE ( 7/15 ) 11,3 1022,6 95 -
Average0,4 -0,7 0,2 Kalm #54/65 2,4 1021,5 92 -
Low-0,1 -1,2 -   0,0 1020,2 91 -
Daily Tabular details for Thursday Dec 13 2018
Time Temp. ( °C ) Dew pt. ( °C ) Wind ( km/h ) From Gust ( km/h ) Pressure ( hPa ) Humid.( % ) Rainrate ( cm )
00:04 0,7 0,0   Kalm 8,0 1022,6 95 -
00:09 0,7 -0,2   Kalm 1,6 1022,2 94 -
00:14 0,7 -0,2   Kalm 1,6 1022,2 94 -
00:19 0,7 -0,2   Kalm 3,2 1022,2 94 -
00:23 0,8 -0,1   Kalm   1022,2 94 -
00:29 0,8 -0,1   Kalm 3,2 1022,2 94 -
00:34 0,8 -0,1   Kalm 3,2 1022,2 94 -
00:39 0,9 -0,1 1,4 SE 1,6 1022,2 93 -
00:43 0,9 -0,1   Kalm 1,6 1022,2 93 -
00:49 1,0 -0,2   Kalm 1,6 1022,6 92 -
00:53 1,1 -0,1   Kalm 1,6 1022,6 92 -
00:59 1,1 -0,2   Kalm   1022,2 91 -
01:04 1,0 -0,3   Kalm   1022,2 91 -
01:09 0,9 -0,4   Kalm   1022,2 91 -
01:14 0,9 -0,4   Kalm 1,6 1022,2 91 -
01:19 0,8 -0,4   Kalm 1,6 1022,2 92 -
01:24 0,7 -0,6   Kalm   1022,2 91 -
01:29 0,7 -0,5   Kalm   1022,2 92 -
01:34 0,7 -0,5   Kalm   1022,2 92 -
01:39 0,7 -0,5   Kalm   1022,2 92 -
01:44 0,6 -0,5   Kalm 1,6 1022,2 92 -
01:48 0,6 -0,5   Kalm   1022,2 92 -
01:54 0,6 -0,5   Kalm 3,2 1022,2 92 -
01:59 0,6 -0,5   Kalm   1021,9 92 -
02:04 0,6 -0,5   Kalm 3,2 1021,9 92 -
02:09 0,5 -0,6   Kalm 1,6 1021,9 92 -
02:14 0,4 -0,7   Kalm 3,2 1021,9 92 -
02:19 0,4 -0,7   Kalm 1,6 1021,9 92 -
02:24 0,3 -0,8   Kalm   1021,9 92 -
02:29 0,2 -0,9   Kalm   1021,9 92 -
02:34 0,2 -0,9   Kalm 1,6 1021,9 92 -
02:38 0,1 -1,0   Kalm   1021,6 92 -
02:44 0,1 -0,9   Kalm 4,8 1021,6 93 -
02:49 0,1 -1,0   Kalm   1021,6 92 -
02:54 0,1 -0,9   Kalm 1,6 1021,6 93 -
02:59 0,1 -1,0 1,4 SE 1,6 1021,6 92 -
03:04 0,1 -1,0   Kalm 8,0 1021,2 92 -
03:09 0,1 -1,0 1,4 ESE 4,8 1021,2 92 -
03:14 0,1 -1,0   Kalm 8,0 1021,2 92 -
03:19 0,1 -1,0   Kalm 1,6 1021,2 92 -
03:24 0,1 -1,0 1,4 ESE 9,7 1021,2 92 -
03:29 0,1 -1,0   Kalm   1021,2 92 -
03:34 0,1 -1,0   Kalm 9,7 1021,2 92 -
03:39 -0,1 -1,2   Kalm   1021,2 92 -
03:44 -0,1 -1,1 1,4 East 3,2 1021,2 93 -
03:49 0,0 -1,0   Kalm   1021,2 93 -
03:54 0,0 -1,0   Kalm 11,3 1021,2 93 -
03:59 0,1 -0,9   Kalm 1,6 1020,9 93 -
04:04 0,1 -1,0   Kalm   1020,9 92 -
04:09 0,0 -1,1   Kalm 1,6 1020,9 92 -
04:14 0,1 -1,0 1,4 SE 1,6 1020,9 92 -
04:19 0,1 -1,0   Kalm 3,2 1020,9 92 -
04:24 0,1 -1,0   Kalm 4,8 1020,9 92 -
04:29 0,1 -0,9   Kalm   1020,9 93 -
04:34 0,1 -0,9   Kalm 1,6 1020,5 93 -
04:38 0,1 -0,9   Kalm   1020,5 93 -
04:44 0,1 -0,9 1,4 SE 1,6 1020,5 93 -
04:49 0,2 -0,8   Kalm 3,2 1020,5 93 -
04:54 0,2 -0,8 1,4 East 4,8 1020,5 93 -
04:59 0,2 -0,8   Kalm 3,2 1020,5 93 -
05:04 0,2 -0,8 1,4 SE 3,2 1020,2 93 -
05:09 0,3 -0,6 1,4 East 4,8 1020,2 94 -
05:14 0,3 -0,7   Kalm 3,2 1020,2 93 -
05:19 0,3 -0,7   Kalm 3,2 1020,2 93 -
05:24 0,3 -0,7 1,4 East 1,6 1020,2 93 -
Daily Summary for Thursday Dec 13 2018
Time Temp. ( °C ) Dew pt. ( °C ) Wind ( km/h ) From Gust ( km/h ) Pressure ( hPa ) Humid.( % ) Rainrate ( cm )
High1,1 0,0 1,4 SE ( 7/15 ) 11,3 1022,6 95 -
Average0,4 -0,7 0,2 Kalm #54/65 2,4 1021,5 92 -
Low-0,1 -1,2 -   0,0 1020,2 91 -
Daily Tabular details for Thursday Dec 13 2018
Time Temp. ( °C ) Dew pt. ( °C ) Wind ( km/h ) From Gust ( km/h ) Pressure ( hPa ) Humid.( % ) Rainrate ( cm )
00:04 0,7 0,0   Kalm 8,0 1022,6 95 -
00:09 0,7 -0,2   Kalm 1,6 1022,2 94 -
00:14 0,7 -0,2   Kalm 1,6 1022,2 94 -
00:19 0,7 -0,2   Kalm 3,2 1022,2 94 -
00:23 0,8 -0,1   Kalm   1022,2 94 -
00:29 0,8 -0,1   Kalm 3,2 1022,2 94 -
00:34 0,8 -0,1   Kalm 3,2 1022,2 94 -
00:39 0,9 -0,1 1,4 SE 1,6 1022,2 93 -
00:43 0,9 -0,1   Kalm 1,6 1022,2 93 -
00:49 1,0 -0,2   Kalm 1,6 1022,6 92 -
00:53 1,1 -0,1   Kalm 1,6 1022,6 92 -
00:59 1,1 -0,2   Kalm   1022,2 91 -
01:04 1,0 -0,3   Kalm   1022,2 91 -
01:09 0,9 -0,4   Kalm   1022,2 91 -
01:14 0,9 -0,4   Kalm 1,6 1022,2 91 -
01:19 0,8 -0,4   Kalm 1,6 1022,2 92 -
01:24 0,7 -0,6   Kalm   1022,2 91 -
01:29 0,7 -0,5   Kalm   1022,2 92 -
01:34 0,7 -0,5   Kalm   1022,2 92 -
01:39 0,7 -0,5   Kalm   1022,2 92 -
01:44 0,6 -0,5   Kalm 1,6 1022,2 92 -
01:48 0,6 -0,5   Kalm   1022,2 92 -
01:54 0,6 -0,5   Kalm 3,2 1022,2 92 -
01:59 0,6 -0,5   Kalm   1021,9 92 -
02:04 0,6 -0,5   Kalm 3,2 1021,9 92 -
02:09 0,5 -0,6   Kalm 1,6 1021,9 92 -
02:14 0,4 -0,7   Kalm 3,2 1021,9 92 -
02:19 0,4 -0,7   Kalm 1,6 1021,9 92 -
02:24 0,3 -0,8   Kalm   1021,9 92 -
02:29 0,2 -0,9   Kalm   1021,9 92 -
02:34 0,2 -0,9   Kalm 1,6 1021,9 92 -
02:38 0,1 -1,0   Kalm   1021,6 92 -
02:44 0,1 -0,9   Kalm 4,8 1021,6 93 -
02:49 0,1 -1,0   Kalm   1021,6 92 -
02:54 0,1 -0,9   Kalm 1,6 1021,6 93 -
02:59 0,1 -1,0 1,4 SE 1,6 1021,6 92 -
03:04 0,1 -1,0   Kalm 8,0 1021,2 92 -
03:09 0,1 -1,0 1,4 ESE 4,8 1021,2 92 -
03:14 0,1 -1,0   Kalm 8,0 1021,2 92 -
03:19 0,1 -1,0   Kalm 1,6 1021,2 92 -
03:24 0,1 -1,0 1,4 ESE 9,7 1021,2 92 -
03:29 0,1 -1,0   Kalm   1021,2 92 -
03:34 0,1 -1,0   Kalm 9,7 1021,2 92 -
03:39 -0,1 -1,2   Kalm   1021,2 92 -
03:44 -0,1 -1,1 1,4 East 3,2 1021,2 93 -
03:49 0,0 -1,0   Kalm   1021,2 93 -
03:54 0,0 -1,0   Kalm 11,3 1021,2 93 -
03:59 0,1 -0,9   Kalm 1,6 1020,9 93 -
04:04 0,1 -1,0   Kalm   1020,9 92 -
04:09 0,0 -1,1   Kalm 1,6 1020,9 92 -
04:14 0,1 -1,0 1,4 SE 1,6 1020,9 92 -
04:19 0,1 -1,0   Kalm 3,2 1020,9 92 -
04:24 0,1 -1,0   Kalm 4,8 1020,9 92 -
04:29 0,1 -0,9   Kalm   1020,9 93 -
04:34 0,1 -0,9   Kalm 1,6 1020,5 93 -
04:38 0,1 -0,9   Kalm   1020,5 93 -
04:44 0,1 -0,9 1,4 SE 1,6 1020,5 93 -
04:49 0,2 -0,8   Kalm 3,2 1020,5 93 -
04:54 0,2 -0,8 1,4 East 4,8 1020,5 93 -
04:59 0,2 -0,8   Kalm 3,2 1020,5 93 -
05:04 0,2 -0,8 1,4 SE 3,2 1020,2 93 -
05:09 0,3 -0,6 1,4 East 4,8 1020,2 94 -
05:14 0,3 -0,7   Kalm 3,2 1020,2 93 -
05:19 0,3 -0,7   Kalm 3,2 1020,2 93 -
05:24 0,3 -0,7 1,4 East 1,6 1020,2 93 -

Download your copy of this data-set  from WeatherUnderground

Our weather-data as stored at Weather Underground. Original script b Jim McMurry. Rewritten for template use Leuven-Template